sensor_id;sensor_type;location;lat;lon;timestamp;P1;durP1;ratioP1;P2;durP2;ratioP2
25129;SDS011;13308;50.860;13.664;2023-04-08T04:34:08;2.13;;;1.45;;
25129;SDS011;13308;50.860;13.664;2023-04-08T04:36:33;2.78;;;1.50;;
25129;SDS011;13308;50.860;13.664;2023-04-08T04:38:59;2.22;;;1.50;;
25129;SDS011;13308;50.860;13.664;2023-04-08T04:41:25;2.85;;;1.35;;
25129;SDS011;13308;50.860;13.664;2023-04-08T04:43:51;3.05;;;1.63;;
25129;SDS011;13308;50.860;13.664;2023-04-08T04:46:16;2.03;;;1.05;;
25129;SDS011;13308;50.860;13.664;2023-04-08T04:48:42;2.25;;;1.70;;
25129;SDS011;13308;50.860;13.664;2023-04-08T04:51:07;2.00;;;1.50;;
25129;SDS011;13308;50.860;13.664;2023-04-08T04:53:32;2.33;;;1.85;;
25129;SDS011;13308;50.860;13.664;2023-04-08T04:55:58;2.65;;;1.52;;
25129;SDS011;13308;50.860;13.664;2023-04-08T04:58:25;2.20;;;1.60;;
25129;SDS011;13308;50.860;13.664;2023-04-08T05:00:50;2.88;;;1.88;;
25129;SDS011;13308;50.860;13.664;2023-04-08T05:03:15;3.00;;;1.85;;
25129;SDS011;13308;50.860;13.664;2023-04-08T05:05:41;1.77;;;1.52;;
25129;SDS011;13308;50.860;13.664;2023-04-08T05:08:06;2.45;;;1.50;;
25129;SDS011;13308;50.860;13.664;2023-04-08T05:10:31;2.42;;;1.60;;
25129;SDS011;13308;50.860;13.664;2023-04-08T05:12:57;2.17;;;1.67;;
25129;SDS011;13308;50.860;13.664;2023-04-08T05:15:22;1.88;;;1.42;;
25129;SDS011;13308;50.860;13.664;2023-04-08T05:17:47;3.00;;;1.80;;
25129;SDS011;13308;50.860;13.664;2023-04-08T05:20:13;2.15;;;1.63;;
25129;SDS011;13308;50.860;13.664;2023-04-08T05:22:38;2.22;;;1.85;;
25129;SDS011;13308;50.860;13.664;2023-04-08T05:25:04;2.88;;;2.17;;
25129;SDS011;13308;50.860;13.664;2023-04-08T05:27:30;3.08;;;1.90;;
25129;SDS011;13308;50.860;13.664;2023-04-08T05:29:55;3.38;;;1.60;;
25129;SDS011;13308;50.860;13.664;2023-04-08T05:32:21;2.30;;;1.77;;
25129;SDS011;13308;50.860;13.664;2023-04-08T05:34:46;1.98;;;1.77;;
25129;SDS011;13308;50.860;13.664;2023-04-08T05:37:11;2.08;;;1.42;;
25129;SDS011;13308;50.860;13.664;2023-04-08T05:39:37;2.13;;;1.60;;
25129;SDS011;13308;50.860;13.664;2023-04-08T05:42:02;2.15;;;1.30;;
25129;SDS011;13308;50.860;13.664;2023-04-08T05:44:27;2.97;;;1.73;;
25129;SDS011;13308;50.860;13.664;2023-04-08T05:46:53;2.28;;;1.60;;
25129;SDS011;13308;50.860;13.664;2023-04-08T05:49:19;2.78;;;1.95;;
25129;SDS011;13308;50.860;13.664;2023-04-08T05:51:45;1.83;;;1.42;;
25129;SDS011;13308;50.860;13.664;2023-04-08T05:54:10;3.45;;;1.98;;
25129;SDS011;13308;50.860;13.664;2023-04-08T05:56:35;2.70;;;1.80;;
25129;SDS011;13308;50.860;13.664;2023-04-08T05:59:01;3.03;;;1.70;;
25129;SDS011;13308;50.860;13.664;2023-04-08T06:01:26;2.97;;;1.67;;
25129;SDS011;13308;50.860;13.664;2023-04-08T06:03:51;2.13;;;1.60;;
25129;SDS011;13308;50.860;13.664;2023-04-08T06:06:17;2.17;;;1.80;;
25129;SDS011;13308;50.860;13.664;2023-04-08T06:08:42;2.78;;;2.00;;
25129;SDS011;13308;50.860;13.664;2023-04-08T06:11:07;2.85;;;1.85;;
25129;SDS011;13308;50.860;13.664;2023-04-08T06:13:33;1.63;;;1.42;;
25129;SDS011;13308;50.860;13.664;2023-04-08T06:15:58;2.20;;;1.67;;
25129;SDS011;13308;50.860;13.664;2023-04-08T06:18:37;3.08;;;1.52;;
25129;SDS011;13308;50.860;13.664;2023-04-08T06:21:02;1.88;;;1.40;;
25129;SDS011;13308;50.860;13.664;2023-04-08T06:23:28;2.58;;;2.10;;
25129;SDS011;13308;50.860;13.664;2023-04-08T06:25:53;3.35;;;1.98;;
25129;SDS011;13308;50.860;13.664;2023-04-08T06:28:18;2.35;;;2.00;;
25129;SDS011;13308;50.860;13.664;2023-04-08T06:30:44;2.53;;;1.77;;
25129;SDS011;13308;50.860;13.664;2023-04-08T06:33:09;2.90;;;2.17;;
25129;SDS011;13308;50.860;13.664;2023-04-08T06:35:34;4.90;;;3.83;;
25129;SDS011;13308;50.860;13.664;2023-04-08T06:38:01;4.07;;;2.17;;
25129;SDS011;13308;50.860;13.664;2023-04-08T06:40:27;2.47;;;2.03;;
25129;SDS011;13308;50.860;13.664;2023-04-08T06:42:52;2.30;;;2.00;;
25129;SDS011;13308;50.860;13.664;2023-04-08T06:45:27;3.55;;;2.42;;
25129;SDS011;13308;50.860;13.664;2023-04-08T06:47:53;4.45;;;2.50;;
25129;SDS011;13308;50.860;13.664;2023-04-08T06:50:20;4.68;;;3.53;;
25129;SDS011;13308;50.860;13.664;2023-04-08T06:52:45;4.10;;;3.08;;
25129;SDS011;13308;50.860;13.664;2023-04-08T06:55:10;5.45;;;3.63;;
25129;SDS011;13308;50.860;13.664;2023-04-08T06:57:36;6.63;;;3.75;;
25129;SDS011;13308;50.860;13.664;2023-04-08T07:00:01;4.13;;;3.10;;
25129;SDS011;13308;50.860;13.664;2023-04-08T07:02:27;4.32;;;3.55;;
25129;SDS011;13308;50.860;13.664;2023-04-08T07:04:52;3.97;;;3.47;;
25129;SDS011;13308;50.860;13.664;2023-04-08T07:07:18;7.60;;;3.70;;
25129;SDS011;13308;50.860;13.664;2023-04-08T07:09:43;5.93;;;3.63;;
25129;SDS011;13308;50.860;13.664;2023-04-08T07:12:10;4.80;;;4.05;;
25129;SDS011;13308;50.860;13.664;2023-04-08T07:14:36;5.82;;;4.57;;
25129;SDS011;13308;50.860;13.664;2023-04-08T07:17:01;7.18;;;3.65;;
25129;SDS011;13308;50.860;13.664;2023-04-08T07:19:27;8.18;;;4.35;;
25129;SDS011;13308;50.860;13.664;2023-04-08T07:21:52;5.60;;;4.00;;
25129;SDS011;13308;50.860;13.664;2023-04-08T07:24:17;7.78;;;4.60;;
25129;SDS011;13308;50.860;13.664;2023-04-08T07:26:43;6.57;;;4.68;;
25129;SDS011;13308;50.860;13.664;2023-04-08T07:29:08;7.22;;;4.88;;
25129;SDS011;13308;50.860;13.664;2023-04-08T07:31:34;8.73;;;4.72;;
25129;SDS011;13308;50.860;13.664;2023-04-08T07:33:59;7.03;;;4.97;;
25129;SDS011;13308;50.860;13.664;2023-04-08T07:36:25;7.43;;;5.18;;
25129;SDS011;13308;50.860;13.664;2023-04-08T07:38:50;7.07;;;5.20;;
25129;SDS011;13308;50.860;13.664;2023-04-08T07:41:16;8.85;;;5.35;;
25129;SDS011;13308;50.860;13.664;2023-04-08T07:43:41;10.85;;;5.97;;
25129;SDS011;13308;50.860;13.664;2023-04-08T07:46:06;11.68;;;6.68;;
25129;SDS011;13308;50.860;13.664;2023-04-08T07:48:33;11.73;;;6.95;;
25129;SDS011;13308;50.860;13.664;2023-04-08T07:51:02;8.32;;;6.10;;
25129;SDS011;13308;50.860;13.664;2023-04-08T07:53:29;11.93;;;6.22;;
25129;SDS011;13308;50.860;13.664;2023-04-08T07:55:54;11.15;;;7.10;;
25129;SDS011;13308;50.860;13.664;2023-04-08T07:58:19;11.45;;;6.63;;
25129;SDS011;13308;50.860;13.664;2023-04-08T08:00:45;10.90;;;6.03;;
25129;SDS011;13308;50.860;13.664;2023-04-08T08:03:10;11.30;;;6.13;;
25129;SDS011;13308;50.860;13.664;2023-04-08T08:05:35;9.98;;;6.47;;
25129;SDS011;13308;50.860;13.664;2023-04-08T08:08:01;9.77;;;6.75;;
25129;SDS011;13308;50.860;13.664;2023-04-08T08:10:27;15.38;;;7.00;;
25129;SDS011;13308;50.860;13.664;2023-04-08T08:12:52;8.63;;;6.18;;
25129;SDS011;13308;50.860;13.664;2023-04-08T08:15:17;10.73;;;7.00;;
25129;SDS011;13308;50.860;13.664;2023-04-08T08:17:43;11.45;;;7.03;;
25129;SDS011;13308;50.860;13.664;2023-04-08T08:20:08;8.77;;;6.05;;
25129;SDS011;13308;50.860;13.664;2023-04-08T08:22:34;7.78;;;6.03;;
25129;SDS011;13308;50.860;13.664;2023-04-08T08:24:59;8.73;;;6.15;;
25129;SDS011;13308;50.860;13.664;2023-04-08T08:27:25;11.05;;;6.05;;
25129;SDS011;13308;50.860;13.664;2023-04-08T08:29:50;9.32;;;6.57;;
25129;SDS011;13308;50.860;13.664;2023-04-08T08:32:16;12.95;;;7.03;;
25129;SDS011;13308;50.860;13.664;2023-04-08T08:34:42;28.17;;;18.00;;
25129;SDS011;13308;50.860;13.664;2023-04-08T08:37:07;19.77;;;12.85;;
25129;SDS011;13308;50.860;13.664;2023-04-08T08:39:32;12.93;;;8.50;;
25129;SDS011;13308;50.860;13.664;2023-04-08T08:41:58;8.90;;;5.90;;
25129;SDS011;13308;50.860;13.664;2023-04-08T08:44:23;8.20;;;5.95;;
25129;SDS011;13308;50.860;13.664;2023-04-08T08:46:48;8.52;;;5.70;;
25129;SDS011;13308;50.860;13.664;2023-04-08T08:49:14;8.05;;;5.90;;
25129;SDS011;13308;50.860;13.664;2023-04-08T08:51:40;17.80;;;10.07;;
25129;SDS011;13308;50.860;13.664;2023-04-08T08:54:06;38.88;;;23.17;;
25129;SDS011;13308;50.860;13.664;2023-04-08T08:56:32;71.88;;;38.58;;
25129;SDS011;13308;50.860;13.664;2023-04-08T08:58:58;243.43;;;115.00;;
25129;SDS011;13308;50.860;13.664;2023-04-08T09:01:33;124.53;;;56.95;;
25129;SDS011;13308;50.860;13.664;2023-04-08T09:04:13;19.38;;;12.35;;
25129;SDS011;13308;50.860;13.664;2023-04-08T09:06:40;9.98;;;8.20;;
25129;SDS011;13308;50.860;13.664;2023-04-08T09:09:06;41.83;;;28.80;;
25129;SDS011;13308;50.860;13.664;2023-04-08T09:11:41;7.45;;;6.57;;
25129;SDS011;13308;50.860;13.664;2023-04-08T09:14:21;16.52;;;11.77;;
25129;SDS011;13308;50.860;13.664;2023-04-08T09:16:47;7.80;;;6.32;;
25129;SDS011;13308;50.860;13.664;2023-04-08T09:19:12;10.07;;;6.07;;
25129;SDS011;13308;50.860;13.664;2023-04-08T09:21:38;8.15;;;6.63;;
25129;SDS011;13308;50.860;13.664;2023-04-08T09:24:05;9.02;;;6.57;;
25129;SDS011;13308;50.860;13.664;2023-04-08T09:26:31;8.93;;;6.00;;
25129;SDS011;13308;50.860;13.664;2023-04-08T09:29:00;7.97;;;6.00;;
25129;SDS011;13308;50.860;13.664;2023-04-08T09:31:30;6.75;;;5.47;;
25129;SDS011;13308;50.860;13.664;2023-04-08T09:34:10;8.55;;;6.07;;
25129;SDS011;13308;50.860;13.664;2023-04-08T09:36:37;11.85;;;8.23;;
25129;SDS011;13308;50.860;13.664;2023-04-08T09:39:02;10.00;;;6.85;;
25129;SDS011;13308;50.860;13.664;2023-04-08T09:41:28;11.10;;;6.78;;
25129;SDS011;13308;50.860;13.664;2023-04-08T09:43:58;16.75;;;11.68;;
25129;SDS011;13308;50.860;13.664;2023-04-08T09:46:35;30.77;;;18.05;;
25129;SDS011;13308;50.860;13.664;2023-04-08T09:49:06;115.38;;;62.95;;
25129;SDS011;13308;50.860;13.664;2023-04-08T09:51:40;93.25;;;49.95;;
25129;SDS011;13308;50.860;13.664;2023-04-08T09:54:10;76.65;;;41.83;;
25129;SDS011;13308;50.860;13.664;2023-04-08T09:56:40;18.55;;;14.05;;
25129;SDS011;13308;50.860;13.664;2023-04-08T09:59:08;13.85;;;8.63;;
25129;SDS011;13308;50.860;13.664;2023-04-08T10:01:44;10.40;;;7.85;;
25129;SDS011;13308;50.860;13.664;2023-04-08T10:04:14;12.93;;;8.68;;
25129;SDS011;13308;50.860;13.664;2023-04-08T10:06:44;25.05;;;14.43;;
25129;SDS011;13308;50.860;13.664;2023-04-08T10:09:19;14.75;;;10.18;;
25129;SDS011;13308;50.860;13.664;2023-04-08T10:11:45;10.40;;;8.18;;
25129;SDS011;13308;50.860;13.664;2023-04-08T10:14:12;9.73;;;7.10;;
25129;SDS011;13308;50.860;13.664;2023-04-08T10:16:37;12.55;;;7.63;;
25129;SDS011;13308;50.860;13.664;2023-04-08T10:19:03;10.23;;;7.18;;
25129;SDS011;13308;50.860;13.664;2023-04-08T10:22:01;10.43;;;7.78;;
25129;SDS011;13308;50.860;13.664;2023-04-08T10:24:26;12.77;;;8.25;;
25129;SDS011;13308;50.860;13.664;2023-04-08T10:26:52;12.48;;;8.00;;
25129;SDS011;13308;50.860;13.664;2023-04-08T10:31:43;12.00;;;7.95;;
25129;SDS011;13308;50.860;13.664;2023-04-08T10:34:15;21.40;;;10.65;;
25129;SDS011;13308;50.860;13.664;2023-04-08T10:36:44;33.88;;;13.40;;
25129;SDS011;13308;50.860;13.664;2023-04-08T10:39:10;17.83;;;9.60;;
25129;SDS011;13308;50.860;13.664;2023-04-08T10:41:44;18.15;;;9.52;;
25129;SDS011;13308;50.860;13.664;2023-04-08T10:47:37;11.02;;;6.65;;
25129;SDS011;13308;50.860;13.664;2023-04-08T10:50:20;23.63;;;11.15;;
25129;SDS011;13308;50.860;13.664;2023-04-08T10:52:53;20.30;;;11.40;;
25129;SDS011;13308;50.860;13.664;2023-04-08T10:55:23;11.38;;;7.57;;
25129;SDS011;13308;50.860;13.664;2023-04-08T10:57:49;10.80;;;7.38;;
25129;SDS011;13308;50.860;13.664;2023-04-08T11:00:18;11.45;;;7.53;;
25129;SDS011;13308;50.860;13.664;2023-04-08T11:02:59;14.85;;;8.75;;
25129;SDS011;13308;50.860;13.664;2023-04-08T11:05:25;19.83;;;10.88;;
25129;SDS011;13308;50.860;13.664;2023-04-08T11:07:51;17.35;;;8.95;;
25129;SDS011;13308;50.860;13.664;2023-04-08T11:10:16;18.23;;;9.40;;
25129;SDS011;13308;50.860;13.664;2023-04-08T11:12:42;17.73;;;8.80;;
25129;SDS011;13308;50.860;13.664;2023-04-08T11:15:07;17.30;;;9.18;;
25129;SDS011;13308;50.860;13.664;2023-04-08T11:17:33;14.38;;;8.32;;
25129;SDS011;13308;50.860;13.664;2023-04-08T11:19:58;14.35;;;8.55;;
25129;SDS011;13308;50.860;13.664;2023-04-08T11:22:27;15.65;;;8.73;;
25129;SDS011;13308;50.860;13.664;2023-04-08T11:24:53;13.05;;;8.65;;
25129;SDS011;13308;50.860;13.664;2023-04-08T11:27:20;19.90;;;9.20;;
25129;SDS011;13308;50.860;13.664;2023-04-08T11:29:49;16.42;;;9.32;;
25129;SDS011;13308;50.860;13.664;2023-04-08T11:32:15;15.75;;;9.55;;
25129;SDS011;13308;50.860;13.664;2023-04-08T11:34:40;15.57;;;9.13;;
25129;SDS011;13308;50.860;13.664;2023-04-08T11:37:06;15.15;;;9.25;;
25129;SDS011;13308;50.860;13.664;2023-04-08T11:39:31;18.40;;;8.90;;
25129;SDS011;13308;50.860;13.664;2023-04-08T11:41:56;15.55;;;8.52;;
25129;SDS011;13308;50.860;13.664;2023-04-08T11:44:31;14.65;;;8.35;;
25129;SDS011;13308;50.860;13.664;2023-04-08T11:46:57;13.82;;;8.13;;
25129;SDS011;13308;50.860;13.664;2023-04-08T11:49:22;15.82;;;8.07;;
25129;SDS011;13308;50.860;13.664;2023-04-08T11:51:58;12.25;;;7.40;;
25129;SDS011;13308;50.860;13.664;2023-04-08T11:56:56;11.43;;;7.15;;
25129;SDS011;13308;50.860;13.664;2023-04-08T11:59:25;13.07;;;8.05;;
25129;SDS011;13308;50.860;13.664;2023-04-08T12:01:51;18.25;;;8.15;;
25129;SDS011;13308;50.860;13.664;2023-04-08T12:04:17;12.25;;;7.80;;
25129;SDS011;13308;50.860;13.664;2023-04-08T12:06:42;14.07;;;8.15;;
25129;SDS011;13308;50.860;13.664;2023-04-08T12:09:10;13.30;;;8.13;;
25129;SDS011;13308;50.860;13.664;2023-04-08T12:11:36;11.15;;;7.07;;
25129;SDS011;13308;50.860;13.664;2023-04-08T12:14:02;16.35;;;7.97;;
25129;SDS011;13308;50.860;13.664;2023-04-08T12:16:27;11.68;;;7.78;;
25129;SDS011;13308;50.860;13.664;2023-04-08T12:18:52;14.18;;;8.38;;
25129;SDS011;13308;50.860;13.664;2023-04-08T12:21:18;17.00;;;8.82;;
25129;SDS011;13308;50.860;13.664;2023-04-08T12:23:43;17.75;;;9.80;;
25129;SDS011;13308;50.860;13.664;2023-04-08T12:26:08;19.95;;;10.90;;
25129;SDS011;13308;50.860;13.664;2023-04-08T12:28:33;19.55;;;10.60;;
25129;SDS011;13308;50.860;13.664;2023-04-08T12:31:00;18.33;;;10.38;;
25129;SDS011;13308;50.860;13.664;2023-04-08T12:33:25;21.52;;;10.98;;
25129;SDS011;13308;50.860;13.664;2023-04-08T12:35:51;23.95;;;13.23;;
25129;SDS011;13308;50.860;13.664;2023-04-08T12:38:16;21.90;;;11.55;;
25129;SDS011;13308;50.860;13.664;2023-04-08T12:40:42;18.70;;;10.95;;
25129;SDS011;13308;50.860;13.664;2023-04-08T12:43:07;22.83;;;11.88;;
25129;SDS011;13308;50.860;13.664;2023-04-08T12:45:32;22.95;;;12.35;;
25129;SDS011;13308;50.860;13.664;2023-04-08T12:47:58;22.88;;;12.20;;
25129;SDS011;13308;50.860;13.664;2023-04-08T12:50:23;22.45;;;11.52;;
25129;SDS011;13308;50.860;13.664;2023-04-08T12:52:48;21.88;;;11.50;;
25129;SDS011;13308;50.860;13.664;2023-04-08T12:55:14;20.35;;;10.95;;
25129;SDS011;13308;50.860;13.664;2023-04-08T12:57:40;22.63;;;11.20;;
25129;SDS011;13308;50.860;13.664;2023-04-08T13:00:05;22.48;;;12.10;;
25129;SDS011;13308;50.860;13.664;2023-04-08T13:02:31;20.55;;;10.75;;
25129;SDS011;13308;50.860;13.664;2023-04-08T13:04:56;22.38;;;11.43;;
25129;SDS011;13308;50.860;13.664;2023-04-08T13:07:22;23.98;;;11.73;;
25129;SDS011;13308;50.860;13.664;2023-04-08T13:09:47;24.20;;;12.10;;
25129;SDS011;13308;50.860;13.664;2023-04-08T13:12:13;28.02;;;12.02;;
25129;SDS011;13308;50.860;13.664;2023-04-08T13:14:38;23.20;;;12.57;;
25129;SDS011;13308;50.860;13.664;2023-04-08T13:17:03;22.88;;;12.02;;
25129;SDS011;13308;50.860;13.664;2023-04-08T13:19:29;23.10;;;11.70;;
25129;SDS011;13308;50.860;13.664;2023-04-08T13:21:55;26.15;;;13.10;;
25129;SDS011;13308;50.860;13.664;2023-04-08T13:24:20;28.23;;;12.60;;
25129;SDS011;13308;50.860;13.664;2023-04-08T13:26:45;23.95;;;12.30;;
25129;SDS011;13308;50.860;13.664;2023-04-08T13:29:11;23.92;;;12.32;;
25129;SDS011;13308;50.860;13.664;2023-04-08T13:31:36;29.60;;;13.18;;
25129;SDS011;13308;50.860;13.664;2023-04-08T13:34:01;27.50;;;13.77;;
25129;SDS011;13308;50.860;13.664;2023-04-08T13:36:27;32.17;;;15.30;;
25129;SDS011;13308;50.860;13.664;2023-04-08T13:38:52;24.25;;;12.55;;
25129;SDS011;13308;50.860;13.664;2023-04-08T13:41:18;25.73;;;12.68;;
25129;SDS011;13308;50.860;13.664;2023-04-08T13:43:45;31.02;;;13.90;;
25129;SDS011;13308;50.860;13.664;2023-04-08T13:46:10;28.90;;;13.65;;
25129;SDS011;13308;50.860;13.664;2023-04-08T13:48:35;26.08;;;14.05;;
25129;SDS011;13308;50.860;13.664;2023-04-08T13:51:01;27.75;;;13.55;;
25129;SDS011;13308;50.860;13.664;2023-04-08T13:53:26;23.63;;;12.02;;
25129;SDS011;13308;50.860;13.664;2023-04-08T13:55:51;23.02;;;11.07;;
25129;SDS011;13308;50.860;13.664;2023-04-08T13:58:19;21.10;;;11.25;;
25129;SDS011;13308;50.860;13.664;2023-04-08T14:00:45;24.00;;;11.57;;
25129;SDS011;13308;50.860;13.664;2023-04-08T14:03:11;31.65;;;14.77;;
25129;SDS011;13308;50.860;13.664;2023-04-08T14:05:36;22.98;;;12.25;;
25129;SDS011;13308;50.860;13.664;2023-04-08T14:08:02;22.50;;;11.40;;
25129;SDS011;13308;50.860;13.664;2023-04-08T14:10:27;20.77;;;12.02;;
25129;SDS011;13308;50.860;13.664;2023-04-08T14:12:52;21.25;;;11.20;;
25129;SDS011;13308;50.860;13.664;2023-04-08T14:15:18;21.98;;;10.65;;
25129;SDS011;13308;50.860;13.664;2023-04-08T14:17:43;22.67;;;11.13;;
25129;SDS011;13308;50.860;13.664;2023-04-08T14:20:09;20.23;;;11.70;;
25129;SDS011;13308;50.860;13.664;2023-04-08T14:22:34;18.60;;;11.02;;
25129;SDS011;13308;50.860;13.664;2023-04-08T14:25:00;21.20;;;11.73;;
25129;SDS011;13308;50.860;13.664;2023-04-08T14:27:25;24.02;;;11.82;;
25129;SDS011;13308;50.860;13.664;2023-04-08T14:29:50;18.70;;;10.27;;
25129;SDS011;13308;50.860;13.664;2023-04-08T14:32:15;17.17;;;10.48;;
25129;SDS011;13308;50.860;13.664;2023-04-08T14:34:41;22.90;;;11.40;;
25129;SDS011;13308;50.860;13.664;2023-04-08T14:37:06;22.38;;;11.07;;
25129;SDS011;13308;50.860;13.664;2023-04-08T14:39:31;16.52;;;9.52;;
25129;SDS011;13308;50.860;13.664;2023-04-08T14:41:57;17.02;;;10.00;;
25129;SDS011;13308;50.860;13.664;2023-04-08T14:44:22;17.48;;;9.75;;
25129;SDS011;13308;50.860;13.664;2023-04-08T14:46:47;17.60;;;9.90;;
25129;SDS011;13308;50.860;13.664;2023-04-08T14:49:13;18.38;;;9.82;;
25129;SDS011;13308;50.860;13.664;2023-04-08T14:51:38;16.88;;;10.18;;
25129;SDS011;13308;50.860;13.664;2023-04-08T14:54:03;19.45;;;10.32;;
25129;SDS011;13308;50.860;13.664;2023-04-08T14:56:29;17.20;;;9.75;;
25129;SDS011;13308;50.860;13.664;2023-04-08T14:58:55;16.25;;;10.57;;
25129;SDS011;13308;50.860;13.664;2023-04-08T15:01:20;19.58;;;10.43;;
25129;SDS011;13308;50.860;13.664;2023-04-08T15:03:46;22.25;;;10.73;;
25129;SDS011;13308;50.860;13.664;2023-04-08T15:06:11;19.42;;;11.18;;
25129;SDS011;13308;50.860;13.664;2023-04-08T15:08:40;21.48;;;11.45;;
25129;SDS011;13308;50.860;13.664;2023-04-08T15:11:09;20.63;;;11.13;;
25129;SDS011;13308;50.860;13.664;2023-04-08T15:13:35;19.13;;;11.45;;
25129;SDS011;13308;50.860;13.664;2023-04-08T15:16:00;21.15;;;11.20;;
25129;SDS011;13308;50.860;13.664;2023-04-08T15:18:26;26.23;;;11.75;;
25129;SDS011;13308;50.860;13.664;2023-04-08T15:20:51;21.88;;;12.27;;
25129;SDS011;13308;50.860;13.664;2023-04-08T15:23:16;20.52;;;11.55;;
25129;SDS011;13308;50.860;13.664;2023-04-08T15:25:42;22.38;;;11.90;;
25129;SDS011;13308;50.860;13.664;2023-04-08T15:28:07;22.70;;;12.25;;
25129;SDS011;13308;50.860;13.664;2023-04-08T15:30:32;24.92;;;11.27;;
25129;SDS011;13308;50.860;13.664;2023-04-08T15:32:59;22.25;;;11.80;;
25129;SDS011;13308;50.860;13.664;2023-04-08T15:35:28;30.23;;;13.02;;
25129;SDS011;13308;50.860;13.664;2023-04-08T15:37:53;24.75;;;12.48;;
25129;SDS011;13308;50.860;13.664;2023-04-08T15:40:19;27.63;;;12.82;;
25129;SDS011;13308;50.860;13.664;2023-04-08T15:42:44;33.10;;;12.70;;
25129;SDS011;13308;50.860;13.664;2023-04-08T15:45:10;25.70;;;12.60;;
25129;SDS011;13308;50.860;13.664;2023-04-08T15:47:35;27.00;;;11.85;;
25129;SDS011;13308;50.860;13.664;2023-04-08T15:50:01;23.23;;;12.07;;
25129;SDS011;13308;50.860;13.664;2023-04-08T15:52:26;26.88;;;13.02;;
25129;SDS011;13308;50.860;13.664;2023-04-08T15:54:52;23.40;;;13.10;;
25129;SDS011;13308;50.860;13.664;2023-04-08T15:57:17;23.02;;;13.15;;
25129;SDS011;13308;50.860;13.664;2023-04-08T15:59:42;24.13;;;13.18;;
25129;SDS011;13308;50.860;13.664;2023-04-08T16:02:08;27.70;;;13.75;;
25129;SDS011;13308;50.860;13.664;2023-04-08T16:04:33;24.98;;;12.18;;
25129;SDS011;13308;50.860;13.664;2023-04-08T16:06:58;25.65;;;12.45;;
25129;SDS011;13308;50.860;13.664;2023-04-08T16:09:24;23.98;;;12.25;;
25129;SDS011;13308;50.860;13.664;2023-04-08T16:11:51;24.23;;;13.10;;
25129;SDS011;13308;50.860;13.664;2023-04-08T16:14:17;26.25;;;13.32;;
25129;SDS011;13308;50.860;13.664;2023-04-08T16:16:42;28.08;;;14.15;;
25129;SDS011;13308;50.860;13.664;2023-04-08T16:19:07;24.25;;;13.77;;
25129;SDS011;13308;50.860;13.664;2023-04-08T16:21:33;27.60;;;13.65;;
25129;SDS011;13308;50.860;13.664;2023-04-08T16:23:58;25.00;;;13.25;;
25129;SDS011;13308;50.860;13.664;2023-04-08T16:26:24;26.33;;;13.57;;
25129;SDS011;13308;50.860;13.664;2023-04-08T16:28:51;27.35;;;14.18;;
25129;SDS011;13308;50.860;13.664;2023-04-08T16:31:17;28.02;;;13.93;;
25129;SDS011;13308;50.860;13.664;2023-04-08T16:33:42;26.88;;;13.50;;
25129;SDS011;13308;50.860;13.664;2023-04-08T16:36:08;28.25;;;14.55;;
25129;SDS011;13308;50.860;13.664;2023-04-08T16:38:33;30.60;;;14.40;;
25129;SDS011;13308;50.860;13.664;2023-04-08T16:40:59;31.25;;;15.02;;
25129;SDS011;13308;50.860;13.664;2023-04-08T16:43:25;29.27;;;14.30;;
25129;SDS011;13308;50.860;13.664;2023-04-08T16:45:51;25.92;;;13.90;;
25129;SDS011;13308;50.860;13.664;2023-04-08T16:48:17;29.13;;;15.00;;
25129;SDS011;13308;50.860;13.664;2023-04-08T16:50:42;35.55;;;16.58;;
25129;SDS011;13308;50.860;13.664;2023-04-08T16:53:08;31.48;;;14.95;;
25129;SDS011;13308;50.860;13.664;2023-04-08T16:55:34;30.50;;;15.50;;
25129;SDS011;13308;50.860;13.664;2023-04-08T16:58:00;32.25;;;15.93;;
25129;SDS011;13308;50.860;13.664;2023-04-08T17:00:26;34.35;;;15.88;;
25129;SDS011;13308;50.860;13.664;2023-04-08T17:02:52;33.03;;;15.52;;
25129;SDS011;13308;50.860;13.664;2023-04-08T17:05:20;31.90;;;15.07;;
25129;SDS011;13308;50.860;13.664;2023-04-08T17:07:46;31.17;;;16.27;;
25129;SDS011;13308;50.860;13.664;2023-04-08T17:10:11;30.80;;;14.55;;
25129;SDS011;13308;50.860;13.664;2023-04-08T17:12:37;31.05;;;15.00;;
25129;SDS011;13308;50.860;13.664;2023-04-08T17:15:02;28.60;;;14.00;;
25129;SDS011;13308;50.860;13.664;2023-04-08T17:17:28;33.72;;;16.45;;
25129;SDS011;13308;50.860;13.664;2023-04-08T17:19:53;39.42;;;17.65;;
25129;SDS011;13308;50.860;13.664;2023-04-08T17:22:18;35.95;;;17.83;;
25129;SDS011;13308;50.860;13.664;2023-04-08T17:24:43;31.52;;;16.38;;
25129;SDS011;13308;50.860;13.664;2023-04-08T17:27:09;40.38;;;18.67;;
25129;SDS011;13308;50.860;13.664;2023-04-08T17:29:35;35.50;;;17.48;;
25129;SDS011;13308;50.860;13.664;2023-04-08T17:32:01;41.55;;;18.45;;
25129;SDS011;13308;50.860;13.664;2023-04-08T17:34:26;41.30;;;17.88;;
25129;SDS011;13308;50.860;13.664;2023-04-08T17:36:53;36.72;;;18.70;;
25129;SDS011;13308;50.860;13.664;2023-04-08T17:39:18;39.88;;;18.70;;
25129;SDS011;13308;50.860;13.664;2023-04-08T17:41:43;38.47;;;18.15;;
25129;SDS011;13308;50.860;13.664;2023-04-08T17:44:09;39.58;;;18.88;;
25129;SDS011;13308;50.860;13.664;2023-04-08T17:46:34;39.10;;;19.13;;
25129;SDS011;13308;50.860;13.664;2023-04-08T17:48:59;33.90;;;17.15;;
25129;SDS011;13308;50.860;13.664;2023-04-08T17:51:24;34.42;;;16.48;;
25129;SDS011;13308;50.860;13.664;2023-04-08T17:53:50;35.03;;;16.38;;
25129;SDS011;13308;50.860;13.664;2023-04-08T17:56:15;28.67;;;14.60;;
25129;SDS011;13308;50.860;13.664;2023-04-08T17:58:41;29.52;;;15.75;;
25129;SDS011;13308;50.860;13.664;2023-04-08T18:01:06;35.13;;;15.93;;
25129;SDS011;13308;50.860;13.664;2023-04-08T18:03:31;33.50;;;16.02;;
25129;SDS011;13308;50.860;13.664;2023-04-08T18:05:56;34.83;;;16.92;;
25129;SDS011;13308;50.860;13.664;2023-04-08T18:08:23;30.15;;;15.60;;
25129;SDS011;13308;50.860;13.664;2023-04-08T18:10:48;36.60;;;17.40;;
25129;SDS011;13308;50.860;13.664;2023-04-08T18:13:14;35.92;;;15.77;;
25129;SDS011;13308;50.860;13.664;2023-04-08T18:15:39;33.50;;;16.17;;
25129;SDS011;13308;50.860;13.664;2023-04-08T18:18:04;32.65;;;15.90;;
25129;SDS011;13308;50.860;13.664;2023-04-08T18:20:33;34.45;;;16.92;;
25129;SDS011;13308;50.860;13.664;2023-04-08T18:23:02;33.67;;;16.67;;
25129;SDS011;13308;50.860;13.664;2023-04-08T18:25:30;34.35;;;17.15;;
